Time;durP1;ratioP1;P1;durP2;ratioP2;P2;SDS_P1;SDS_P2;PMS_P1;PMS_P2;Temp;Humidity;BMP_temperature;BMP_pressure;BME280_temperature;BME280_humidity;BME280_pressure;Samples;Min_cycle;Max_cycle;Signal;HPM_P1;HPM_P2
2022/10/21 00:01:06;;;;;;;4.67;2.60;;;14.50;92.60;;;;;;4950300;28;20915;-70
2022/10/21 00:03:34;;;;;;;3.50;3.20;;;14.50;92.60;;;;;;4952437;28;20529;-69
2022/10/21 00:06:03;;;;;;;3.70;2.70;;;14.50;92.80;;;;;;4950002;28;20538;-69
2022/10/21 00:08:32;;;;;;;2.87;2.67;;;14.50;92.70;;;;;;4958319;28;20473;-69
2022/10/21 00:11:03;;;;;;;2.53;2.10;;;14.50;92.80;;;;;;4952967;28;20514;-69
2022/10/21 00:13:33;;;;;;;3.70;2.63;;;14.50;92.70;;;;;;4979353;28;20537;-69
2022/10/21 00:16:05;;;;;;;3.03;2.40;;;14.50;92.70;;;;;;4953220;28;20443;-70
2022/10/21 00:18:36;;;;;;;3.83;3.00;;;14.50;92.60;;;;;;4954200;28;20459;-70
2022/10/21 00:21:09;;;;;;;2.77;2.57;;;14.50;92.60;;;;;;4970678;28;21016;-70
2022/10/21 00:23:37;;;;;;;3.10;2.60;;;14.50;92.50;;;;;;4954693;28;20987;-70
2022/10/21 00:26:06;;;;;;;3.07;2.77;;;14.50;92.50;;;;;;4958490;28;20455;-70
2022/10/21 00:28:35;;;;;;;3.40;3.10;;;14.50;92.40;;;;;;4960685;28;20490;-70
2022/10/21 00:31:07;;;;;;;2.63;2.43;;;14.50;92.50;;;;;;4958100;28;20456;-70
2022/10/21 00:33:36;;;;;;;2.37;2.17;;;14.50;92.50;;;;;;4959701;28;20565;-70
2022/10/21 00:36:06;;;;;;;2.40;2.20;;;14.50;92.60;;;;;;4952691;28;20509;-69
2022/10/21 00:38:36;;;;;;;2.43;2.23;;;14.50;92.60;;;;;;4936201;28;20614;-70
2022/10/21 00:41:04;;;;;;;3.70;2.20;;;14.50;92.70;;;;;;4952385;28;20435;-69
2022/10/21 00:43:32;;;;;;;3.33;2.33;;;14.50;92.90;;;;;;4954003;28;20509;-69
2022/10/21 00:46:06;;;;;;;3.00;2.53;;;14.50;92.70;;;;;;4958855;28;20443;-69
2022/10/21 00:48:38;;;;;;;3.53;2.37;;;14.50;92.70;;;;;;4954080;28;20619;-70
2022/10/21 00:51:09;;;;;;;2.70;2.50;;;14.50;92.60;;;;;;4952818;28;20986;-70
2022/10/21 00:53:42;;;;;;;2.90;2.60;;;14.50;92.40;;;;;;4943481;28;20458;-69
2022/10/21 00:56:14;;;;;;;2.90;2.10;;;14.50;92.50;;;;;;4959068;28;20484;-70
2022/10/21 00:58:45;;;;;;;2.70;2.50;;;14.50;92.60;;;;;;4960097;28;21007;-70
2022/10/21 01:01:15;;;;;;;3.70;2.83;;;14.50;93.30;;;;;;4953608;28;20458;-69
2022/10/21 01:03:49;;;;;;;3.07;2.30;;;14.50;92.60;;;;;;4974743;28;20537;-70
2022/10/21 01:06:20;;;;;;;2.90;2.70;;;14.50;92.50;;;;;;4952258;28;20488;-69
2022/10/21 01:08:49;;;;;;;2.40;2.20;;;14.50;92.60;;;;;;4955149;28;20500;-70
2022/10/21 01:11:21;;;;;;;2.53;2.33;;;14.50;92.70;;;;;;4951246;28;20446;-69
2022/10/21 01:14:10;;;;;;;2.77;2.10;;;14.50;92.60;;;;;;4952315;28;20459;-69
2022/10/21 01:16:47;;;;;;;2.37;2.10;;;14.50;92.60;;;;;;4952797;28;20978;-69
2022/10/21 01:19:33;;;;;;;3.00;2.80;;;14.50;92.60;;;;;;4954933;28;20900;-70
2022/10/21 01:22:11;;;;;;;3.17;2.70;;;14.50;92.50;;;;;;4951440;28;20541;-69
2022/10/21 01:25:04;;;;;;;2.37;2.17;;;14.50;92.60;;;;;;4949340;28;20474;-70
2022/10/21 01:27:45;;;;;;;2.30;1.90;;;14.50;92.70;;;;;;4962794;28;20977;-69
2022/10/21 01:30:37;;;;;;;3.13;2.50;;;14.50;92.80;;;;;;4955472;28;20970;-69
2022/10/21 01:33:19;;;;;;;2.27;1.90;;;14.50;92.80;;;;;;4946714;28;20983;-69
2022/10/21 01:35:51;;;;;;;2.37;1.87;;;14.50;92.70;;;;;;4954031;28;20536;-69
2022/10/21 01:38:24;;;;;;;3.13;2.13;;;14.50;92.70;;;;;;4956612;28;20986;-69
2022/10/21 01:40:57;;;;;;;2.30;2.10;;;14.50;92.70;;;;;;4954483;28;20454;-69
2022/10/21 01:43:37;;;;;;;2.40;2.20;;;14.50;92.70;;;;;;4971326;23;21029;-52
2022/10/21 01:46:12;;;;;;;2.60;2.40;;;14.50;92.70;;;;;;4949646;28;20451;-53
2022/10/21 01:48:47;;;;;;;2.10;1.73;;;14.50;92.60;;;;;;4952881;28;20443;-53
2022/10/21 01:51:17;;;;;;;2.67;2.23;;;14.50;92.70;;;;;;4948433;28;20442;-53
2022/10/21 01:53:52;;;;;;;3.67;2.27;;;14.50;92.70;;;;;;4943790;28;20459;-53
2022/10/21 01:56:22;;;;;;;3.10;2.43;;;14.50;92.60;;;;;;4943191;28;20459;-52
2022/10/21 01:58:53;;;;;;;2.70;2.47;;;14.50;92.70;;;;;;4951135;28;20427;-52
2022/10/21 02:01:24;;;;;;;1.70;1.60;;;14.50;92.60;;;;;;4956977;28;20443;-50
2022/10/21 02:03:57;;;;;;;3.80;2.03;;;14.50;92.70;;;;;;4954249;28;20483;-51
2022/10/21 02:06:26;;;;;;;1.70;1.57;;;14.50;92.70;;;;;;4971101;28;20447;-53
2022/10/21 02:08:55;;;;;;;1.87;1.67;;;14.50;92.70;;;;;;4958519;28;20447;-52
2022/10/21 02:11:24;;;;;;;4.40;2.03;;;14.50;92.70;;;;;;4965209;28;20427;-52
2022/10/21 02:13:58;;;;;;;3.33;2.03;;;14.50;92.60;;;;;;4961459;28;20467;-52
2022/10/21 02:16:31;;;;;;;2.23;2.03;;;14.50;92.70;;;;;;4962624;28;20454;-52
2022/10/21 02:19:00;;;;;;;2.23;2.03;;;14.50;92.70;;;;;;4943185;29;20458;-53
2022/10/21 02:21:33;;;;;;;2.17;1.97;;;14.50;92.60;;;;;;4938491;28;20437;-52
2022/10/21 02:24:07;;;;;;;3.90;2.20;;;14.50;92.60;;;;;;4952032;28;20526;-51
2022/10/21 02:26:35;;;;;;;2.30;2.10;;;14.50;92.70;;;;;;4957037;28;20464;-51
2022/10/21 02:29:04;;;;;;;1.73;1.53;;;14.50;92.80;;;;;;4955383;28;20826;-52
2022/10/21 02:31:47;;;;;;;1.93;1.77;;;14.50;92.90;;;;;;4963128;28;20451;-50
2022/10/21 02:34:29;;;;;;;3.70;2.10;;;14.50;92.90;;;;;;4969266;28;20815;-52
2022/10/21 02:37:07;;;;;;;2.30;1.50;;;14.50;92.90;;;;;;4955089;28;20443;-52
2022/10/21 02:39:40;;;;;;;3.20;1.83;;;14.50;92.80;;;;;;4952845;28;20471;-52
2022/10/21 02:42:13;;;;;;;1.70;1.60;;;14.50;92.90;;;;;;4958778;28;20503;-52
2022/10/21 02:44:42;;;;;;;3.90;2.20;;;14.50;93.00;;;;;;4948216;28;20479;-52
2022/10/21 02:47:11;;;;;;;2.10;1.83;;;14.50;93.00;;;;;;4946297;28;20448;-53
2022/10/21 02:49:40;;;;;;;2.17;1.97;;;14.50;93.00;;;;;;4940056;28;20574;-52
2022/10/21 02:52:08;;;;;;;5.30;2.07;;;14.50;93.00;;;;;;4944134;28;20529;-52
2022/10/21 02:54:37;;;;;;;2.40;2.20;;;14.50;92.90;;;;;;4951543;28;20479;-50
2022/10/21 02:57:05;;;;;;;2.73;2.00;;;14.50;92.90;;;;;;4946088;29;20431;-53
2022/10/21 02:59:35;;;;;;;2.27;1.93;;;14.50;92.80;;;;;;4954676;28;20530;-52
2022/10/21 03:02:04;;;;;;;1.97;1.77;;;14.50;92.70;;;;;;4952742;28;20495;-52
2022/10/21 03:04:34;;;;;;;2.00;1.80;;;14.50;92.90;;;;;;4933764;28;20467;-51
2022/10/21 03:07:02;;;;;;;1.70;1.60;;;14.50;92.80;;;;;;4948780;29;20432;-53
2022/10/21 03:09:30;;;;;;;1.80;1.70;;;14.60;92.80;;;;;;4934778;28;20538;-53
2022/10/21 03:11:59;;;;;;;2.07;1.43;;;14.50;92.70;;;;;;4965006;28;20435;-52
2022/10/21 03:14:28;;;;;;;1.97;1.77;;;14.50;92.70;;;;;;4952953;28;20435;-52
2022/10/21 03:16:56;;;;;;;2.97;2.67;;;14.50;92.60;;;;;;4953296;28;20793;-52
2022/10/21 03:19:25;;;;;;;1.90;1.50;;;14.50;92.60;;;;;;4944426;29;20542;-52
2022/10/21 03:21:54;;;;;;;2.20;2.10;;;14.50;92.70;;;;;;4949311;28;20428;-53
2022/10/21 03:24:23;;;;;;;2.77;1.90;;;14.50;92.90;;;;;;4949656;28;20467;-52
2022/10/21 03:26:56;;;;;;;2.80;1.90;;;14.50;92.90;;;;;;4944061;29;20864;-52
2022/10/21 03:29:24;;;;;;;2.90;2.03;;;14.50;92.80;;;;;;4969120;28;20471;-52
2022/10/21 03:31:53;;;;;;;2.07;1.87;;;14.50;92.80;;;;;;4953217;28;20444;-52
2022/10/21 03:34:21;;;;;;;1.93;1.50;;;14.50;92.80;;;;;;4945346;28;20479;-52
2022/10/21 03:36:50;;;;;;;2.47;1.50;;;14.50;92.90;;;;;;4952986;28;20443;-52
2022/10/21 03:39:20;;;;;;;3.40;1.70;;;14.50;92.80;;;;;;4935883;29;20460;-52
2022/10/21 03:41:48;;;;;;;1.53;1.43;;;14.50;92.80;;;;;;4953128;28;20442;-51
2022/10/21 03:44:17;;;;;;;1.67;1.53;;;14.50;92.90;;;;;;4944497;28;20476;-52
2022/10/21 03:46:45;;;;;;;3.27;1.80;;;14.50;93.40;;;;;;4950132;28;20435;-53
2022/10/21 03:49:14;;;;;;;1.70;1.60;;;14.50;93.00;;;;;;4959857;28;20509;-52
2022/10/21 03:51:49;;;;;;;4.53;1.73;;;14.50;93.00;;;;;;4950547;28;20427;-52
2022/10/21 03:54:19;;;;;;;1.83;1.33;;;14.50;93.00;;;;;;4953492;28;20502;-52
2022/10/21 03:56:48;;;;;;;2.10;1.90;;;14.50;92.90;;;;;;4945136;28;20459;-51
2022/10/21 03:59:17;;;;;;;1.63;1.50;;;14.50;92.90;;;;;;4951558;28;20789;-52
2022/10/21 04:01:45;;;;;;;1.50;1.40;;;14.50;92.80;;;;;;4932661;29;20456;-53
2022/10/21 04:04:14;;;;;;;1.80;1.63;;;14.50;92.80;;;;;;4951497;28;20494;-53
2022/10/21 04:06:43;;;;;;;1.67;1.57;;;14.50;92.70;;;;;;4960958;28;20788;-51
2022/10/21 04:09:11;;;;;;;2.07;1.83;;;14.60;92.90;;;;;;4938994;29;20820;-52
2022/10/21 04:11:41;;;;;;;2.10;1.77;;;14.50;92.90;;;;;;4943764;28;20434;-51
2022/10/21 04:14:10;;;;;;;2.60;1.63;;;14.50;92.90;;;;;;4958634;28;20466;-52
2022/10/21 04:16:43;;;;;;;1.70;1.60;;;14.50;92.90;;;;;;4941132;29;20483;-52
2022/10/21 04:19:17;;;;;;;2.13;1.40;;;14.60;92.90;;;;;;4944961;28;20470;-54
2022/10/21 04:21:46;;;;;;;2.30;1.67;;;14.60;93.10;;;;;;4949538;28;20461;-51
2022/10/21 04:24:15;;;;;;;2.73;1.43;;;14.60;93.10;;;;;;4934664;28;20472;-51
2022/10/21 04:26:44;;;;;;;1.87;1.77;;;14.50;93.00;;;;;;4951934;28;20465;-50
2022/10/21 04:29:13;;;;;;;1.90;1.63;;;14.50;92.80;;;;;;4944525;29;20440;-52
2022/10/21 04:31:42;;;;;;;1.90;1.70;;;14.60;92.90;;;;;;4958681;28;20440;-52
2022/10/21 04:34:11;;;;;;;1.67;1.53;;;14.60;93.00;;;;;;4945946;29;20468;-52
2022/10/21 04:36:39;;;;;;;1.40;1.30;;;14.50;92.90;;;;;;4944145;28;20514;-51
2022/10/21 04:39:08;;;;;;;1.30;1.20;;;14.50;92.80;;;;;;4952321;28;21010;-52
2022/10/21 04:41:36;;;;;;;2.27;1.93;;;14.60;92.90;;;;;;4951803;28;20440;-53
2022/10/21 04:44:06;;;;;;;1.87;1.57;;;14.50;92.70;;;;;;4935460;29;20551;-52
2022/10/21 04:46:35;;;;;;;1.80;1.70;;;14.60;92.80;;;;;;4954199;28;20444;-52
2022/10/21 04:49:04;;;;;;;2.73;1.93;;;14.60;93.00;;;;;;4935270;29;20461;-52
2022/10/21 04:51:32;;;;;;;1.70;1.60;;;14.60;93.00;;;;;;4953593;28;20770;-52
2022/10/21 04:54:01;;;;;;;1.87;1.60;;;14.60;93.30;;;;;;4939950;28;20732;-51
2022/10/21 04:56:29;;;;;;;2.10;1.50;;;14.50;92.70;;;;;;4969987;28;20564;-52
2022/10/21 04:58:57;;;;;;;3.27;1.20;;;14.60;93.40;;;;;;4955003;28;20446;-52
2022/10/21 05:01:27;;;;;;;3.70;1.40;;;14.60;92.90;;;;;;4959500;28;20431;-53
2022/10/21 05:03:56;;;;;;;1.93;1.73;;;14.60;92.90;;;;;;4939402;28;20479;-53
2022/10/21 05:06:24;;;;;;;1.83;1.37;;;14.60;92.90;;;;;;4961293;28;20481;-53
2022/10/21 05:08:53;;;;;;;2.30;1.40;;;14.60;92.80;;;;;;4949711;28;20443;-53
2022/10/21 05:11:22;;;;;;;1.20;1.10;;;14.60;92.70;;;;;;4937431;28;20444;-52
2022/10/21 05:13:50;;;;;;;3.00;1.63;;;14.60;92.70;;;;;;4954914;28;20479;-52
2022/10/21 05:16:19;;;;;;;1.77;1.60;;;14.60;92.80;;;;;;4950339;28;20472;-51
2022/10/21 05:18:49;;;;;;;2.37;1.80;;;14.60;92.90;;;;;;4936306;29;20975;-53
2022/10/21 05:21:17;;;;;;;2.33;1.57;;;14.60;92.80;;;;;;4959230;28;20442;-52
2022/10/21 05:23:45;;;;;;;2.60;1.23;;;14.60;92.70;;;;;;4936375;28;20546;-51
2022/10/21 05:26:14;;;;;;;1.80;1.27;;;14.60;92.80;;;;;;4963832;28;20456;-52
2022/10/21 05:28:42;;;;;;;1.43;1.33;;;14.60;93.20;;;;;;4943384;28;20439;-53
2022/10/21 05:31:11;;;;;;;2.70;2.33;;;14.60;92.70;;;;;;4955059;28;20447;-53
2022/10/21 05:33:39;;;;;;;4.20;1.83;;;14.60;93.00;;;;;;4934787;28;20455;-51
2022/10/21 05:36:09;;;;;;;2.07;1.50;;;14.60;92.70;;;;;;4941490;28;20847;-54
2022/10/21 05:38:38;;;;;;;3.23;1.93;;;14.60;92.80;;;;;;4950795;28;20463;-52
2022/10/21 05:41:06;;;;;;;1.53;1.43;;;14.60;93.10;;;;;;4949727;28;20809;-54
2022/10/21 05:43:35;;;;;;;1.60;1.50;;;14.60;92.90;;;;;;4952972;28;20462;-53
2022/10/21 05:46:04;;;;;;;1.70;1.40;;;14.60;93.00;;;;;;4937184;29;20563;-53
2022/10/21 05:48:33;;;;;;;1.67;1.27;;;14.60;92.80;;;;;;4933182;28;20436;-51
2022/10/21 05:51:01;;;;;;;1.70;1.40;;;14.60;92.70;;;;;;4934818;29;21106;-53
2022/10/21 05:53:31;;;;;;;2.30;1.60;;;14.60;92.80;;;;;;4947954;28;20851;-52
2022/10/21 05:56:01;;;;;;;1.77;1.50;;;14.60;92.90;;;;;;4929873;28;20481;-52
2022/10/21 05:58:31;;;;;;;2.80;1.87;;;14.60;92.90;;;;;;4944291;28;20541;-51
2022/10/21 06:01:00;;;;;;;3.97;1.87;;;14.60;92.80;;;;;;4953684;28;20526;-51
2022/10/21 06:03:33;;;;;;;1.57;1.47;;;14.60;92.90;;;;;;4951414;28;20451;-52
2022/10/21 06:06:05;;;;;;;2.30;1.50;;;14.60;92.90;;;;;;4959008;28;20514;-52
2022/10/21 06:08:38;;;;;;;1.90;1.50;;;14.60;92.70;;;;;;4950363;28;20455;-51
2022/10/21 06:11:09;;;;;;;1.30;1.20;;;14.60;92.80;;;;;;4959588;28;20507;-51
2022/10/21 06:13:38;;;;;;;1.70;1.60;;;14.60;92.70;;;;;;4947084;28;20475;-50
2022/10/21 06:16:09;;;;;;;1.70;1.50;;;14.60;92.60;;;;;;4955482;28;20468;-52
2022/10/21 06:18:37;;;;;;;1.93;1.43;;;14.60;92.50;;;;;;4951266;28;20449;-51
2022/10/21 06:21:06;;;;;;;1.70;1.60;;;14.60;92.40;;;;;;4964127;28;20455;-53
2022/10/21 06:23:36;;;;;;;3.50;1.50;;;14.60;92.60;;;;;;4960377;28;20444;-50
2022/10/21 06:26:07;;;;;;;1.87;1.73;;;14.60;92.60;;;;;;4955967;28;20475;-50
2022/10/21 06:28:40;;;;;;;1.60;1.43;;;14.60;92.60;;;;;;4950936;28;20502;-53
2022/10/21 06:31:12;;;;;;;1.43;1.30;;;14.60;92.50;;;;;;4950807;28;20863;-50
2022/10/21 06:33:40;;;;;;;1.53;1.43;;;14.60;92.50;;;;;;4961072;28;20451;-51
2022/10/21 06:36:09;;;;;;;2.63;1.50;;;14.60;92.30;;;;;;4952119;28;20452;-52
2022/10/21 06:38:42;;;;;;;2.87;1.70;;;14.60;92.50;;;;;;4949965;28;20467;-50
2022/10/21 06:41:12;;;;;;;1.97;1.87;;;14.60;92.40;;;;;;4958502;28;20475;-52
2022/10/21 06:43:41;;;;;;;1.87;1.77;;;14.60;92.40;;;;;;4936706;28;20884;-50
2022/10/21 06:46:12;;;;;;;1.43;1.33;;;14.60;92.30;;;;;;4958826;28;20475;-51
2022/10/21 06:48:40;;;;;;;3.03;1.87;;;14.60;92.10;;;;;;4935591;28;20487;-53
2022/10/21 06:51:11;;;;;;;2.43;1.50;;;14.60;92.10;;;;;;4953630;28;20861;-52
2022/10/21 06:53:41;;;;;;;2.00;1.80;;;14.60;92.10;;;;;;4952711;28;20476;-50
2022/10/21 06:56:11;;;;;;;1.30;1.20;;;14.60;92.20;;;;;;4954527;28;20463;-51
2022/10/21 06:58:42;;;;;;;1.47;1.37;;;14.60;92.20;;;;;;4946521;28;20943;-53
2022/10/21 07:01:12;;;;;;;2.30;1.87;;;14.60;92.30;;;;;;4938555;29;20455;-51
2022/10/21 07:04:02;;;;;;;1.40;1.30;;;14.60;92.30;;;;;;4932835;29;20800;-53
2022/10/21 07:06:31;;;;;;;1.63;1.50;;;14.60;92.30;;;;;;4916596;28;20489;-53
2022/10/21 07:09:06;;;;;;;2.43;1.73;;;14.60;92.30;;;;;;4934615;28;20463;-51
2022/10/21 07:11:35;;;;;;;1.60;1.50;;;14.60;92.30;;;;;;4947460;28;20551;-53
2022/10/21 07:14:03;;;;;;;2.53;1.70;;;14.60;92.20;;;;;;4943553;29;20483;-51
2022/10/21 07:16:36;;;;;;;1.43;1.33;;;14.60;92.10;;;;;;4952400;28;20464;-52
2022/10/21 07:19:05;;;;;;;2.93;1.73;;;14.60;92.20;;;;;;4960270;28;20521;-51
2022/10/21 07:21:33;;;;;;;2.30;1.70;;;14.60;92.30;;;;;;4958734;28;20539;-52
2022/10/21 07:24:03;;;;;;;1.67;1.57;;;14.60;92.10;;;;;;4939676;28;20473;-51
2022/10/21 07:26:34;;;;;;;1.63;1.47;;;14.60;92.20;;;;;;4953842;28;20490;-51
2022/10/21 07:29:05;;;;;;;1.90;1.77;;;14.60;92.30;;;;;;4943598;28;20438;-52
2022/10/21 07:31:37;;;;;;;2.47;1.37;;;14.60;92.40;;;;;;4959576;28;20811;-50
2022/10/21 07:34:08;;;;;;;1.90;1.57;;;14.60;92.30;;;;;;4945456;28;20560;-53
2022/10/21 07:36:38;;;;;;;2.30;1.33;;;14.60;92.20;;;;;;4943335;28;21056;-52
2022/10/21 07:39:10;;;;;;;2.07;1.87;;;14.60;92.10;;;;;;4958320;28;20450;-52
2022/10/21 07:45:02;;;;;;;2.20;1.53;;;14.60;92.20;;;;;;4945991;28;20468;-49
2022/10/21 07:47:30;;;;;;;1.40;1.17;;;14.60;92.20;;;;;;4936752;29;20444;-49
2022/10/21 07:49:59;;;;;;;1.70;1.20;;;14.60;92.30;;;;;;4925889;29;21047;-49
2022/10/21 07:52:28;;;;;;;1.50;1.40;;;14.60;92.10;;;;;;4949111;29;20944;-49
2022/10/21 07:55:00;;;;;;;2.27;1.23;;;14.60;92.20;;;;;;4947040;28;20479;-49
2022/10/21 07:57:30;;;;;;;2.33;1.70;;;14.60;92.10;;;;;;4930565;29;20945;-49
2022/10/21 07:59:59;;;;;;;1.93;1.20;;;14.60;92.10;;;;;;4946577;28;20475;-50
2022/10/21 08:02:27;;;;;;;2.00;1.40;;;14.60;92.10;;;;;;4935308;29;20445;-49
2022/10/21 08:04:56;;;;;;;1.90;1.70;;;14.60;92.10;;;;;;4933966;29;20709;-49
2022/10/21 08:07:25;;;;;;;1.47;1.37;;;14.60;92.00;;;;;;4939964;29;20433;-50
2022/10/21 08:09:53;;;;;;;2.23;1.57;;;14.60;91.90;;;;;;4934841;29;20475;-48
2022/10/21 08:12:21;;;;;;;1.50;1.40;;;14.60;92.00;;;;;;4940299;29;20525;-51
2022/10/21 08:14:52;;;;;;;1.50;1.30;;;14.60;92.10;;;;;;4925249;29;20507;-50
2022/10/21 08:17:21;;;;;;;1.80;1.70;;;14.60;92.00;;;;;;4938735;29;20504;-48
2022/10/21 08:19:50;;;;;;;2.00;1.43;;;14.60;91.90;;;;;;4948643;29;20447;-50
2022/10/21 08:22:19;;;;;;;1.63;1.30;;;14.60;91.90;;;;;;4947780;29;20522;-51
2022/10/21 08:24:48;;;;;;;2.20;1.50;;;14.60;92.30;;;;;;4913350;29;20463;-50
2022/10/21 08:27:20;;;;;;;1.20;1.10;;;14.60;92.00;;;;;;4940757;29;20823;-50
2022/10/21 08:29:49;;;;;;;2.77;2.57;;;14.60;92.00;;;;;;4934958;29;20444;-50
2022/10/21 08:32:19;;;;;;;2.10;1.70;;;14.60;92.10;;;;;;4943499;29;20528;-50
2022/10/21 08:34:47;;;;;;;2.93;2.13;;;14.60;92.50;;;;;;4936046;29;20998;-50
2022/10/21 08:37:16;;;;;;;2.00;1.50;;;14.60;92.60;;;;;;4930549;29;20890;-51
2022/10/21 08:39:50;;;;;;;2.23;1.70;;;14.60;92.50;;;;;;4936007;29;20440;-50
2022/10/21 08:42:19;;;;;;;2.33;1.57;;;14.60;92.40;;;;;;4943193;29;20448;-50
2022/10/21 08:44:58;;;;;;;1.60;1.20;;;14.60;92.50;;;;;;4917212;29;20470;-51
2022/10/21 08:47:43;;;;;;;1.93;1.20;;;14.60;92.50;;;;;;4906872;29;20570;-50
2022/10/21 08:50:16;;;;;;;2.23;1.40;;;14.60;93.00;;;;;;4904221;29;20496;-50
2022/10/21 08:52:48;;;;;;;2.07;1.70;;;14.60;93.00;;;;;;4919970;29;20453;-50
2022/10/21 08:55:21;;;;;;;1.77;1.67;;;14.60;93.20;;;;;;4901421;29;20525;-50
2022/10/21 08:57:53;;;;;;;3.53;1.50;;;14.60;93.20;;;;;;4914620;29;20520;-50
2022/10/21 09:00:24;;;;;;;1.87;1.50;;;14.60;94.00;;;;;;4902634;29;20473;-48
2022/10/21 09:03:07;;;;;;;2.03;1.40;;;14.70;93.70;;;;;;4901990;29;20969;-49
2022/10/21 09:06:08;;;;;;;1.73;1.30;;;14.60;93.70;;;;;;4902683;29;20481;-50
2022/10/21 09:08:50;;;;;;;1.30;1.20;;;14.60;93.10;;;;;;4895122;29;20951;-50
2022/10/21 09:11:33;;;;;;;2.17;1.20;;;14.60;93.20;;;;;;4910780;29;20521;-50
2022/10/21 09:14:36;;;;;;;2.10;1.57;;;14.60;93.10;;;;;;4892581;29;20858;-50
2022/10/21 09:17:17;;;;;;;2.23;1.53;;;14.60;93.70;;;;;;4915614;29;20779;-50
2022/10/21 09:19:53;;;;;;;1.87;1.60;;;14.60;93.60;;;;;;4906319;29;20469;-49
2022/10/21 09:22:38;;;;;;;1.37;1.27;;;14.60;93.90;;;;;;4892252;29;20457;-50
2022/10/21 09:25:20;;;;;;;1.90;1.63;;;14.60;94.20;;;;;;4912650;29;20480;-49
2022/10/21 09:27:50;;;;;;;1.73;1.43;;;14.60;93.50;;;;;;4910303;29;20474;-50
2022/10/21 09:30:25;;;;;;;2.13;1.20;;;14.60;93.70;;;;;;4892038;29;20499;-51
2022/10/21 09:32:57;;;;;;;3.20;1.70;;;14.60;93.10;;;;;;4895607;29;20449;-50
2022/10/21 09:35:33;;;;;;;1.67;1.57;;;14.60;93.10;;;;;;4921521;29;20984;-51
2022/10/21 09:38:15;;;;;;;1.37;1.27;;;14.60;92.70;;;;;;4918837;29;20553;-48
2022/10/21 09:40:46;;;;;;;1.53;1.30;;;14.60;92.60;;;;;;4908304;29;20900;-50
2022/10/21 09:43:18;;;;;;;2.20;2.00;;;14.60;92.70;;;;;;4918254;29;20472;-50
2022/10/21 09:45:47;;;;;;;1.83;1.60;;;14.60;93.10;;;;;;4927699;29;20476;-50
2022/10/21 09:48:26;;;;;;;1.73;1.40;;;14.60;92.50;;;;;;4922067;29;20448;-49
2022/10/21 09:51:04;;;;;;;1.60;1.27;;;14.60;92.50;;;;;;4930926;29;20468;-51
2022/10/21 09:53:38;;;;;;;1.70;1.60;;;14.60;92.50;;;;;;4927616;29;20448;-51
2022/10/21 09:56:19;;;;;;;4.80;1.50;;;14.60;93.80;;;;;;4916410;29;20519;-51
2022/10/21 09:59:02;;;;;;;1.40;1.30;;;14.60;93.20;;;;;;4918442;29;20471;-49
2022/10/21 10:01:43;;;;;;;1.50;1.40;;;14.60;92.90;;;;;;4913675;29;20459;-51
2022/10/21 10:04:14;;;;;;;2.03;1.83;;;14.60;93.00;;;;;;4912722;29;20507;-51
2022/10/21 10:06:45;;;;;;;1.20;1.00;;;14.60;93.00;;;;;;4926297;29;20976;-50
2022/10/21 10:09:16;;;;;;;1.33;1.23;;;14.60;93.50;;;;;;4917110;29;20458;-50
2022/10/21 10:11:54;;;;;;;2.10;1.10;;;14.60;93.10;;;;;;4914379;29;20508;-50
2022/10/21 10:14:32;;;;;;;1.83;1.00;;;14.70;93.00;;;;;;4921415;29;20473;-51
2022/10/21 10:17:27;;;;;;;2.80;1.50;;;14.70;93.00;;;;;;4932024;29;20453;-51
2022/10/21 10:20:23;;;;;;;2.00;1.40;;;14.70;93.50;;;;;;4923512;29;20466;-49
2022/10/21 10:23:18;;;;;;;9.90;1.70;;;14.70;93.30;;;;;;4917369;29;20457;-50
2022/10/21 10:25:52;;;;;;;2.83;1.33;;;14.70;93.20;;;;;;4925671;29;20472;-51
2022/10/21 10:28:24;;;;;;;1.90;1.33;;;14.70;93.70;;;;;;4937395;29;21082;-51
2022/10/21 10:30:55;;;;;;;2.93;1.80;;;14.70;93.20;;;;;;4929372;29;20471;-52
2022/10/21 10:33:27;;;;;;;3.20;1.60;;;14.70;93.00;;;;;;4920485;29;20955;-49
2022/10/21 10:35:57;;;;;;;3.03;2.03;;;14.70;92.90;;;;;;4925868;29;20487;-50
2022/10/21 10:38:30;;;;;;;2.63;1.90;;;14.60;92.90;;;;;;4936907;29;20493;-49
2022/10/21 10:41:07;;;;;;;3.37;1.30;;;14.70;93.80;;;;;;4950178;29;21091;-50
2022/10/21 10:43:42;;;;;;;3.23;1.30;;;14.70;93.20;;;;;;4932668;28;20443;-51
2022/10/21 10:46:23;;;;;;;6.93;1.87;;;14.70;93.00;;;;;;4925576;29;20514;-50
2022/10/21 10:48:53;;;;;;;3.17;1.60;;;14.70;92.90;;;;;;4925514;29;20473;-51
2022/10/21 10:51:27;;;;;;;1.63;1.30;;;14.70;92.90;;;;;;4920331;29;20440;-51
2022/10/21 10:54:19;;;;;;;1.60;1.10;;;14.70;92.80;;;;;;4938213;29;20475;-51
2022/10/21 10:56:53;;;;;;;1.80;1.27;;;14.70;92.80;;;;;;4932284;29;20871;-50
2022/10/21 10:59:32;;;;;;;2.60;1.10;;;14.70;92.70;;;;;;4929611;29;20448;-50
2022/10/21 11:02:22;;;;;;;1.90;1.73;;;14.70;92.70;;;;;;4940230;29;20439;-48
2022/10/21 11:05:15;;;;;;;1.27;1.10;;;14.70;92.60;;;;;;4934264;28;20854;-49
2022/10/21 11:07:47;;;;;;;2.90;1.30;;;14.70;93.00;;;;;;4940636;29;20820;-49
2022/10/21 11:10:30;;;;;;;1.70;1.47;;;14.70;92.90;;;;;;4917124;29;20470;-49
2022/10/21 11:12:59;;;;;;;3.67;1.70;;;14.70;92.90;;;;;;4913109;29;20527;-49
2022/10/21 11:15:40;;;;;;;2.50;1.53;;;14.80;94.40;;;;;;4917189;29;20586;-49
2022/10/21 11:18:18;;;;;;;3.50;1.43;;;14.80;96.90;;;;;;4915905;29;20892;-49
2022/10/21 11:21:00;;;;;;;1.57;1.40;;;14.80;97.20;;;;;;4935035;29;20483;-49
2022/10/21 11:24:14;;;;;;;2.43;1.47;;;14.80;96.50;;;;;;4924096;29;20459;-49
2022/10/21 11:26:52;;;;;;;2.50;1.40;;;14.80;95.50;;;;;;4845172;29;22244;-49
2022/10/21 11:29:33;;;;;;;1.33;1.23;;;14.80;94.80;;;;;;4832433;29;20501;-50
2022/10/21 11:32:11;;;;;;;4.70;1.40;;;14.80;94.90;;;;;;4853124;29;20458;-51
2022/10/21 11:34:56;;;;;;;2.77;1.50;;;14.80;96.30;;;;;;4832970;29;20547;-49
2022/10/21 11:37:43;;;;;;;1.77;1.50;;;14.80;95.60;;;;;;4854155;29;20456;-49
2022/10/21 11:40:19;;;;;;;2.03;1.20;;;14.80;95.30;;;;;;4830980;29;20543;-48
2022/10/21 11:42:52;;;;;;;1.33;1.20;;;14.80;94.90;;;;;;4839371;29;20808;-48
2022/10/21 11:45:43;;;;;;;1.63;1.50;;;14.80;95.00;;;;;;4923141;28;20626;-51
2022/10/21 11:48:24;;;;;;;1.70;1.30;;;14.80;95.10;;;;;;4919884;29;20461;-50
2022/10/21 11:51:03;;;;;;;4.60;1.43;;;14.80;95.50;;;;;;4942095;29;20843;-50
2022/10/21 11:53:48;;;;;;;1.90;1.37;;;14.80;95.60;;;;;;4931362;29;20452;-48
2022/10/21 11:56:26;;;;;;;1.33;1.23;;;14.90;96.40;;;;;;4912451;29;20563;-50
2022/10/21 11:59:10;;;;;;;2.10;1.20;;;15.00;99.90;;;;;;4918515;29;20454;-49
2022/10/21 12:01:47;;;;;;;1.43;1.17;;;15.00;99.90;;;;;;4931793;29;20456;-49
2022/10/21 12:04:36;;;;;;;2.23;1.40;;;15.00;99.10;;;;;;4925752;29;20516;-50
2022/10/21 12:07:38;;;;;;;1.17;1.07;;;15.00;97.90;;;;;;4917982;29;20436;-50
2022/10/21 12:10:13;;;;;;;1.67;1.43;;;15.00;97.10;;;;;;4886438;29;20468;-50
2022/10/21 12:12:46;;;;;;;1.50;1.30;;;15.00;96.70;;;;;;4923055;29;20448;-50
2022/10/21 12:15:20;;;;;;;1.30;1.20;;;14.90;96.50;;;;;;4912862;29;20468;-50
2022/10/21 12:17:50;;;;;;;1.03;0.93;;;14.90;96.40;;;;;;4929024;29;20444;-49
2022/10/21 12:20:22;;;;;;;1.57;1.40;;;14.90;96.50;;;;;;4932987;29;20464;-49
2022/10/21 12:22:55;;;;;;;1.40;1.10;;;14.90;96.40;;;;;;4914677;29;20449;-50
2022/10/21 12:25:34;;;;;;;1.67;1.20;;;14.90;96.50;;;;;;4907330;29;20473;-49
2022/10/21 12:28:08;;;;;;;2.17;1.20;;;14.90;96.30;;;;;;4935627;29;20479;-50
2022/10/21 12:30:41;;;;;;;2.07;1.20;;;14.90;96.40;;;;;;4921737;29;20484;-50
2022/10/21 12:33:17;;;;;;;1.40;1.07;;;14.90;96.40;;;;;;4918473;29;20550;-50
2022/10/21 12:35:51;;;;;;;2.70;1.73;;;14.90;96.30;;;;;;4921505;29;20938;-48
2022/10/21 12:38:26;;;;;;;5.57;1.23;;;14.90;96.20;;;;;;4935333;29;20441;-50
2022/10/21 12:41:37;;;;;;;3.00;1.00;;;14.90;96.80;;;;;;4927364;29;20486;-50
2022/10/21 12:44:19;;;;;;;1.20;0.93;;;15.00;96.30;;;;;;4912957;29;20988;-50
2022/10/21 12:46:52;;;;;;;1.23;1.13;;;15.00;95.90;;;;;;4929328;29;20483;-49
2022/10/21 12:49:31;;;;;;;1.20;1.00;;;14.90;95.60;;;;;;4928885;29;20571;-47
2022/10/21 12:52:08;;;;;;;0.87;0.87;;;15.00;95.60;;;;;;4933348;29;20974;-49
2022/10/21 12:54:49;;;;;;;1.23;1.10;;;15.00;95.80;;;;;;4925039;29;20576;-50
2022/10/21 12:57:27;;;;;;;1.50;1.20;;;14.90;95.80;;;;;;4938742;29;20455;-49
2022/10/21 13:00:31;;;;;;;1.57;1.47;;;14.90;95.80;;;;;;4930572;29;21006;-50
2022/10/21 13:03:03;;;;;;;1.40;1.30;;;14.90;95.90;;;;;;4938141;29;20471;-49
2022/10/21 13:06:01;;;;;;;1.27;1.00;;;15.00;95.90;;;;;;4944353;28;20566;-50
2022/10/21 13:08:39;;;;;;;1.03;0.80;;;14.90;95.90;;;;;;4927328;28;20842;-49
2022/10/21 13:11:22;;;;;;;2.83;1.00;;;14.90;96.00;;;;;;4925241;29;20475;-50
2022/10/21 13:14:23;;;;;;;1.63;0.90;;;14.90;96.10;;;;;;4940896;29;20460;-49
2022/10/21 13:16:52;;;;;;;2.60;1.00;;;14.90;96.10;;;;;;4919121;29;20475;-51
2022/10/21 13:19:35;;;;;;;1.00;0.90;;;15.00;96.70;;;;;;4924340;29;20677;-49
2022/10/21 13:25:20;;;;;;;3.07;1.10;;;15.00;96.30;;;;;;5101696;27;21051;-50
2022/10/21 13:27:52;;;;;;;1.20;0.70;;;15.10;98.20;;;;;;5062797;28;20909;-50